Aérodrome :
LOGIN :

S'inscrire | Disclaimer

   EN    FR    IT 

 










Légende :    VFR   VFR Marginal   IFR   IFR Intensif   IFR Très Intensif
Visi : 
Plafond : 
>= 8 km
>= 3000ft
5 à 8 km
1000 à 3000 ft
1500m à 5 km
500 à 1000 ft
800 à 1500m
200 à 500 ft
< 800m
< 200 ft
Symboles :   Orages  Brouillard  Fortes neiges  Fortes précipitations  Vent > 20 kt
SIGMETs :   Divers  Orages  Givrage  Turbulence  Onde Orograph.  Cendres Volcan.






- Altitude de l'aérodrome : 587 ft
- Code IATA : XCR


LFOK - Chalons Vatry

DERNIER METAR :
  • 252130Z AUTO 21010KT 9999 -RA NSC 11/10 Q1004 TEMPO 19015G25KT 3000 RA BKN007 BKN020CB

METARs EXPIRÉS :
  • 252100Z AUTO 21011KT 9999 -RA SCT014/// SCT044/// BKN070/// ///TCU 11/10 Q1003 TEMPO 19015G25KT 3000 RA BKN007 BKN020CB
  • 252030Z AUTO 20012KT 9999 -RA SCT013/// BKN018/// BKN035/// ///TCU 11/10 Q1003 TEMPO 19015G25KT 3000 RA BKN007 BKN020CB
  • 252000Z AUTO 18014KT 9999 FEW019/// BKN056/// BKN076/// ///CB 11/10 Q1003 TEMPO 19015G25KT 3000 RA BKN007
  • 251930Z AUTO 18012KT 9999 FEW011/// BKN056/// OVC120/// ///TCU 11/10 Q1003 TEMPO 19015G25KT 3000 RA BKN007
  • 251900Z AUTO 18012KT 9999 FEW020 SCT046 BKN058 11/10 Q1004 TEMPO 19015G25KT 3000 RA BKN007

TAF AMD TAF LFOK
Valide du 25 à 20h jusqu'au 26 à 18h UTC


252013Z 2520/2618 21015KT 9999 BKN020
TEMPO 2520/2524 19015G25KT 3000 RA BKN007 BKN020CB
TEMPO 2600/2608 BKN007
TEMPO 2616/2618 3000 SHRA BKN007 SCT025TCU



MET'MAP, la Météo Aéronautique d'un coup d'oeil ! - Copyright ORBIFLY Décembre 2007 - Disclaimer

ORBIFLY MET'MAP TEAM :

Programmation & Développement : Alexandra Zaïnal
Sur une idée originale de : Baudouin d'Aumeries
Assistance à la programmation : Marc-Olivier Méhu
Soutien technique & logistique : Manuel Goepfert

Contact : metmap@orbifly.com




SOURCES & CREDITS :

   NOAA